»·PEaware :: SKW5510 KLAX-KSBP

SKW5510 :: KLAX-KSBP

FLIGHT INFORMATION

Flight Status: Arrived
Operator:
SkyWest Airlines
More flights by this operator :: More flights under this callsign
Pilot: Alec D. (17934)
Aircraft: EMBRAER EMB-170/175
(E170)
More flights by this aircraft type
Origin: KLAX Los Angeles Intl
United States
Destination: KSBP San Luis Co Regl
United States
More flights between these airports :: More routes between these airports
Route: +VTU8 RZS
File this flight plan on PilotEdge
Remarks:
Altitude:
(Current/Filed)
16,000ft
Speed:
(Current/Filed)
370kts
Departed: 23-Aug-18 01:07 PM
Arrived: 23-Aug-18 01:37 PM
Distance/Time
Traveled:
135nm/0:30
Distance/Time
To Go:
Arrived

Flight Plot

Page will automatically refresh every two minutes.

Flight plan parsing failed; only flown route is shown


Map Options




Map Legend


Flown Route
Filed Route
Departure Airport
Arrival Airport
Navaid (VOR, NDB)
Fix

Horizontal Profiles

Position Reports

Time Latitude Longitude Heading Altitude Ground
Speed
23-Aug-18 12:37 33.940402 -118.399861 29 137ft 0kts
23-Aug-18 12:38 33.940402 -118.399861 29 137ft 0kts
23-Aug-18 12:39 33.940402 -118.399861 29 137ft 0kts
23-Aug-18 12:40 33.940402 -118.399861 29 137ft 0kts
23-Aug-18 12:41 33.940402 -118.399861 29 137ft 0kts
23-Aug-18 12:42 33.940402 -118.399861 29 137ft 0kts
23-Aug-18 12:43 33.940402 -118.399861 29 137ft 0kts
23-Aug-18 12:44 33.940402 -118.399861 29 137ft 0kts
23-Aug-18 12:45 33.940402 -118.399861 29 137ft 0kts
23-Aug-18 12:46 33.940402 -118.399861 29 137ft 0kts
23-Aug-18 12:47 33.940402 -118.399861 29 137ft 0kts
23-Aug-18 12:48 33.940402 -118.399861 29 137ft 0kts
23-Aug-18 12:49 33.940402 -118.399861 29 137ft 0kts
23-Aug-18 12:50 33.940402 -118.399861 29 137ft 0kts
23-Aug-18 12:51 33.940402 -118.399861 29 137ft 0kts
23-Aug-18 12:52 33.940402 -118.399861 29 137ft 0kts
23-Aug-18 12:53 33.940402 -118.399861 29 137ft 0kts
23-Aug-18 12:54 33.940402 -118.399861 29 137ft 0kts
23-Aug-18 12:55 33.940402 -118.399861 29 137ft 0kts
23-Aug-18 12:56 33.940402 -118.399861 29 137ft 0kts
23-Aug-18 12:57 33.940402 -118.399861 29 137ft 0kts
23-Aug-18 12:58 33.940289 -118.399947 40 137ft 2kts
23-Aug-18 12:59 33.940150 -118.400220 75 137ft 0kts
23-Aug-18 13:00 33.940151 -118.400215 75 137ft 0kts
23-Aug-18 13:01 33.940153 -118.400205 75 137ft 0kts
23-Aug-18 13:02 33.939693 -118.397219 85 137ft 13kts
23-Aug-18 13:03 33.940429 -118.391780 84 137ft 12kts
23-Aug-18 13:04 33.940984 -118.385846 82 137ft 21kts
23-Aug-18 13:05 33.940736 -118.381218 84 137ft 11kts
23-Aug-18 13:06 33.940741 -118.380864 96 137ft 0kts
23-Aug-18 13:07 33.939851 -118.380923 261 137ft 15kts
23-Aug-18 13:08 33.935402 -118.423249 262 1114ft 201kts
23-Aug-18 13:09 33.927619 -118.494793 262 4749ft 230kts
23-Aug-18 13:10 33.919915 -118.579513 270 8423ft 270kts
23-Aug-18 13:11 33.934328 -118.672472 281 11565ft 313kts
23-Aug-18 13:12 33.960966 -118.781840 299 14151ft 358kts
23-Aug-18 13:13 34.021347 -118.880575 302 15876ft 370kts
23-Aug-18 13:14 34.078260 -118.983573 302 16009ft 368kts
23-Aug-18 13:15 34.135496 -119.086354 301 16014ft 368kts
23-Aug-18 13:16 34.191945 -119.188964 301 16002ft 367kts
23-Aug-18 13:17 34.248497 -119.291895 301 15999ft 366kts
23-Aug-18 13:18 34.304776 -119.394540 301 16009ft 366kts
23-Aug-18 13:19 34.360928 -119.497311 301 16018ft 366kts
23-Aug-18 13:20 34.417145 -119.600531 301 16014ft 366kts
23-Aug-18 13:21 34.473069 -119.703534 301 16014ft 367kts
23-Aug-18 13:22 34.534698 -119.800383 315 14738ft 353kts
23-Aug-18 13:23 34.600855 -119.878611 313 13210ft 314kts
23-Aug-18 13:24 34.661003 -119.949821 313 11694ft 292kts
23-Aug-18 13:25 34.717699 -120.017004 313 10214ft 284kts
23-Aug-18 13:26 34.773624 -120.083376 314 8711ft 277kts
23-Aug-18 13:27 34.827963 -120.147991 314 7212ft 270kts
23-Aug-18 13:28 34.880836 -120.210973 314 6144ft 258kts
23-Aug-18 13:29 34.931728 -120.271718 314 6010ft 252kts
23-Aug-18 13:30 34.980116 -120.332372 312 6013ft 247kts
23-Aug-18 13:31 35.027566 -120.393068 312 5975ft 247kts
23-Aug-18 13:32 35.073177 -120.451601 312 4684ft 225kts
23-Aug-18 13:33 35.114844 -120.505889 312 3271ft 211kts
23-Aug-18 13:34 35.151891 -120.552378 323 2887ft 164kts
23-Aug-18 13:35 35.187006 -120.575139 331 1677ft 130kts
23-Aug-18 13:36 35.214842 -120.601134 305 907ft 129kts
23-Aug-18 13:37 35.234451 -120.635953 303 231ft 116kts
23-Aug-18 13:38 35.241365 -120.646844 63 223ft 11kts
23-Aug-18 13:39 35.239482 -120.642923 123 223ft 11kts
23-Aug-18 13:40 35.237704 -120.638011 88 223ft 17kts
23-Aug-18 13:41 35.238728 -120.637598 247 223ft 0kts
23-Aug-18 13:42 35.238728 -120.637598 247 223ft 0kts
23-Aug-18 13:43 35.238728 -120.637598 247 223ft 0kts
23-Aug-18 13:44 35.238728 -120.637598 247 223ft 0kts
23-Aug-18 13:45 35.238728 -120.637598 247 223ft 0kts
23-Aug-18 13:46 35.238728 -120.637598 247 223ft 0kts
23-Aug-18 13:47 35.238728 -120.637598 247 223ft 0kts
23-Aug-18 13:48 35.238728 -120.637598 247 223ft 0kts
23-Aug-18 13:49 35.238728 -120.637598 247 223ft 0kts

Navigation Log

Ident Type
Flight plan parsing failed, navigation log unavailable